sensor_id;sensor_type;location;lat;lon;timestamp;P1;durP1;ratioP1;P2;durP2;ratioP2
47383;SDS011;33129;52.232;5.192;2022-11-23T00:00:33;25.20;;;15.93;;
47383;SDS011;33129;52.232;5.192;2022-11-23T00:02:59;25.37;;;15.33;;
47383;SDS011;33129;52.232;5.192;2022-11-23T00:05:26;29.30;;;16.37;;
47383;SDS011;33129;52.232;5.192;2022-11-23T00:07:53;24.60;;;14.60;;
47383;SDS011;33129;52.232;5.192;2022-11-23T00:10:18;25.37;;;15.87;;
47383;SDS011;33129;52.232;5.192;2022-11-23T00:12:44;24.37;;;14.67;;
47383;SDS011;33129;52.232;5.192;2022-11-23T00:15:11;22.53;;;14.23;;
47383;SDS011;33129;52.232;5.192;2022-11-23T00:17:38;28.73;;;15.93;;
47383;SDS011;33129;52.232;5.192;2022-11-23T00:20:05;26.33;;;15.23;;
47383;SDS011;33129;52.232;5.192;2022-11-23T00:22:32;24.83;;;14.83;;
47383;SDS011;33129;52.232;5.192;2022-11-23T00:24:59;26.13;;;16.23;;
47383;SDS011;33129;52.232;5.192;2022-11-23T00:27:24;29.13;;;16.83;;
47383;SDS011;33129;52.232;5.192;2022-11-23T00:29:50;30.47;;;17.13;;
47383;SDS011;33129;52.232;5.192;2022-11-23T00:32:16;26.77;;;16.90;;
47383;SDS011;33129;52.232;5.192;2022-11-23T00:34:41;26.23;;;16.70;;
47383;SDS011;33129;52.232;5.192;2022-11-23T00:37:07;31.60;;;18.10;;
47383;SDS011;33129;52.232;5.192;2022-11-23T00:39:33;34.87;;;18.23;;
47383;SDS011;33129;52.232;5.192;2022-11-23T00:41:58;28.63;;;17.43;;
47383;SDS011;33129;52.232;5.192;2022-11-23T00:44:24;32.90;;;17.23;;
47383;SDS011;33129;52.232;5.192;2022-11-23T00:46:50;31.23;;;16.57;;
47383;SDS011;33129;52.232;5.192;2022-11-23T00:49:16;27.90;;;16.93;;
47383;SDS011;33129;52.232;5.192;2022-11-23T00:51:41;31.53;;;19.37;;
47383;SDS011;33129;52.232;5.192;2022-11-23T00:54:07;33.60;;;18.87;;
47383;SDS011;33129;52.232;5.192;2022-11-23T00:56:34;28.87;;;17.70;;
47383;SDS011;33129;52.232;5.192;2022-11-23T00:59:00;30.07;;;17.57;;
47383;SDS011;33129;52.232;5.192;2022-11-23T01:01:28;31.17;;;18.20;;
47383;SDS011;33129;52.232;5.192;2022-11-23T01:03:58;26.92;;;16.75;;
47383;SDS011;33129;52.232;5.192;2022-11-23T01:06:36;30.83;;;16.77;;
47383;SDS011;33129;52.232;5.192;2022-11-23T01:09:04;28.93;;;16.00;;
47383;SDS011;33129;52.232;5.192;2022-11-23T01:11:39;27.33;;;16.50;;
47383;SDS011;33129;52.232;5.192;2022-11-23T01:14:05;29.77;;;16.80;;
47383;SDS011;33129;52.232;5.192;2022-11-23T01:16:32;30.97;;;17.30;;
47383;SDS011;33129;52.232;5.192;2022-11-23T01:19:06;26.90;;;16.38;;
47383;SDS011;33129;52.232;5.192;2022-11-23T01:21:36;31.27;;;17.07;;
47383;SDS011;33129;52.232;5.192;2022-11-23T01:24:06;27.10;;;16.77;;
47383;SDS011;33129;52.232;5.192;2022-11-23T01:26:38;30.67;;;17.13;;
47383;SDS011;33129;52.232;5.192;2022-11-23T01:29:05;33.07;;;17.33;;
47383;SDS011;33129;52.232;5.192;2022-11-23T01:31:30;23.70;;;16.20;;
47383;SDS011;33129;52.232;5.192;2022-11-23T01:33:57;30.97;;;16.47;;
47383;SDS011;33129;52.232;5.192;2022-11-23T01:36:28;26.90;;;16.67;;
47383;SDS011;33129;52.232;5.192;2022-11-23T01:38:56;32.30;;;16.83;;
47383;SDS011;33129;52.232;5.192;2022-11-23T01:41:25;35.67;;;17.40;;
47383;SDS011;33129;52.232;5.192;2022-11-23T01:44:20;30.90;;;16.80;;
47383;SDS011;33129;52.232;5.192;2022-11-23T01:49:22;26.73;;;15.83;;
47383;SDS011;33129;52.232;5.192;2022-11-23T01:51:50;34.47;;;17.43;;
47383;SDS011;33129;52.232;5.192;2022-11-23T01:54:33;30.17;;;16.87;;
47383;SDS011;33129;52.232;5.192;2022-11-23T01:57:06;29.30;;;16.77;;
47383;SDS011;33129;52.232;5.192;2022-11-23T01:59:40;37.77;;;18.77;;
47383;SDS011;33129;52.232;5.192;2022-11-23T02:02:06;29.30;;;17.13;;
47383;SDS011;33129;52.232;5.192;2022-11-23T02:04:33;29.47;;;17.27;;
47383;SDS011;33129;52.232;5.192;2022-11-23T02:07:03;29.77;;;17.07;;
47383;SDS011;33129;52.232;5.192;2022-11-23T02:09:30;30.60;;;18.20;;
47383;SDS011;33129;52.232;5.192;2022-11-23T02:11:57;32.80;;;18.37;;
47383;SDS011;33129;52.232;5.192;2022-11-23T02:14:23;30.00;;;16.47;;
47383;SDS011;33129;52.232;5.192;2022-11-23T02:16:50;31.80;;;16.63;;
47383;SDS011;33129;52.232;5.192;2022-11-23T02:19:23;34.90;;;17.00;;
47383;SDS011;33129;52.232;5.192;2022-11-23T02:22:10;27.37;;;15.93;;
47383;SDS011;33129;52.232;5.192;2022-11-23T02:25:06;24.20;;;14.37;;
47383;SDS011;33129;52.232;5.192;2022-11-23T02:27:46;37.90;;;15.93;;
47383;SDS011;33129;52.232;5.192;2022-11-23T02:30:12;25.17;;;14.53;;
47383;SDS011;33129;52.232;5.192;2022-11-23T02:32:38;27.33;;;15.20;;
47383;SDS011;33129;52.232;5.192;2022-11-23T02:35:05;28.53;;;15.40;;
47383;SDS011;33129;52.232;5.192;2022-11-23T02:37:31;26.27;;;15.23;;
47383;SDS011;33129;52.232;5.192;2022-11-23T02:39:56;27.00;;;15.40;;
47383;SDS011;33129;52.232;5.192;2022-11-23T02:42:27;27.93;;;14.60;;
47383;SDS011;33129;52.232;5.192;2022-11-23T02:47:57;26.63;;;13.90;;
47383;SDS011;33129;52.232;5.192;2022-11-23T02:50:23;27.77;;;13.87;;
47383;SDS011;33129;52.232;5.192;2022-11-23T02:52:49;25.97;;;14.03;;
47383;SDS011;33129;52.232;5.192;2022-11-23T02:55:14;24.67;;;13.93;;
47383;SDS011;33129;52.232;5.192;2022-11-23T02:57:40;21.90;;;13.07;;
47383;SDS011;33129;52.232;5.192;2022-11-23T03:00:06;27.53;;;13.93;;
47383;SDS011;33129;52.232;5.192;2022-11-23T03:02:33;21.97;;;13.77;;
47383;SDS011;33129;52.232;5.192;2022-11-23T03:04:58;22.57;;;13.00;;
47383;SDS011;33129;52.232;5.192;2022-11-23T03:07:24;24.60;;;12.73;;
47383;SDS011;33129;52.232;5.192;2022-11-23T03:09:50;24.10;;;13.63;;
47383;SDS011;33129;52.232;5.192;2022-11-23T03:12:16;28.13;;;13.10;;
47383;SDS011;33129;52.232;5.192;2022-11-23T03:14:41;29.37;;;14.33;;
47383;SDS011;33129;52.232;5.192;2022-11-23T03:17:07;26.17;;;13.10;;
47383;SDS011;33129;52.232;5.192;2022-11-23T03:19:33;26.07;;;14.07;;
47383;SDS011;33129;52.232;5.192;2022-11-23T03:21:59;22.90;;;12.63;;
47383;SDS011;33129;52.232;5.192;2022-11-23T03:24:24;29.57;;;15.27;;
47383;SDS011;33129;52.232;5.192;2022-11-23T03:26:50;26.47;;;14.33;;
47383;SDS011;33129;52.232;5.192;2022-11-23T03:29:16;29.17;;;14.50;;
47383;SDS011;33129;52.232;5.192;2022-11-23T03:31:42;26.90;;;14.20;;
47383;SDS011;33129;52.232;5.192;2022-11-23T03:34:08;25.27;;;14.17;;
47383;SDS011;33129;52.232;5.192;2022-11-23T03:36:34;30.13;;;15.67;;
47383;SDS011;33129;52.232;5.192;2022-11-23T03:39:00;27.93;;;14.13;;
47383;SDS011;33129;52.232;5.192;2022-11-23T03:41:26;26.93;;;15.47;;
47383;SDS011;33129;52.232;5.192;2022-11-23T03:43:51;27.17;;;14.93;;
47383;SDS011;33129;52.232;5.192;2022-11-23T03:46:17;24.37;;;14.17;;
47383;SDS011;33129;52.232;5.192;2022-11-23T03:48:43;27.67;;;15.83;;
47383;SDS011;33129;52.232;5.192;2022-11-23T03:51:09;23.50;;;14.50;;
47383;SDS011;33129;52.232;5.192;2022-11-23T03:53:34;25.37;;;14.70;;
47383;SDS011;33129;52.232;5.192;2022-11-23T03:56:00;22.43;;;13.93;;
47383;SDS011;33129;52.232;5.192;2022-11-23T03:58:26;20.23;;;14.43;;
47383;SDS011;33129;52.232;5.192;2022-11-23T04:00:51;20.50;;;13.73;;
47383;SDS011;33129;52.232;5.192;2022-11-23T04:03:18;22.30;;;13.43;;
47383;SDS011;33129;52.232;5.192;2022-11-23T04:05:44;24.30;;;13.60;;
47383;SDS011;33129;52.232;5.192;2022-11-23T04:08:09;24.57;;;13.70;;
47383;SDS011;33129;52.232;5.192;2022-11-23T04:10:35;20.73;;;12.57;;
47383;SDS011;33129;52.232;5.192;2022-11-23T04:13:01;24.53;;;13.20;;
47383;SDS011;33129;52.232;5.192;2022-11-23T04:15:27;18.33;;;11.77;;
47383;SDS011;33129;52.232;5.192;2022-11-23T04:17:53;18.83;;;11.47;;
47383;SDS011;33129;52.232;5.192;2022-11-23T04:20:19;16.77;;;10.87;;
47383;SDS011;33129;52.232;5.192;2022-11-23T04:22:45;19.53;;;11.20;;
47383;SDS011;33129;52.232;5.192;2022-11-23T04:25:11;19.93;;;11.03;;
47383;SDS011;33129;52.232;5.192;2022-11-23T04:27:36;18.60;;;11.50;;
47383;SDS011;33129;52.232;5.192;2022-11-23T04:30:03;18.10;;;12.00;;
47383;SDS011;33129;52.232;5.192;2022-11-23T04:32:31;24.30;;;12.00;;
47383;SDS011;33129;52.232;5.192;2022-11-23T04:34:56;23.93;;;11.50;;
47383;SDS011;33129;52.232;5.192;2022-11-23T04:37:22;17.53;;;11.30;;
47383;SDS011;33129;52.232;5.192;2022-11-23T04:39:48;18.60;;;11.37;;
47383;SDS011;33129;52.232;5.192;2022-11-23T04:42:14;20.40;;;11.47;;
47383;SDS011;33129;52.232;5.192;2022-11-23T04:44:39;17.37;;;11.03;;
47383;SDS011;33129;52.232;5.192;2022-11-23T04:47:05;21.37;;;11.53;;
47383;SDS011;33129;52.232;5.192;2022-11-23T04:49:32;19.33;;;11.23;;
47383;SDS011;33129;52.232;5.192;2022-11-23T04:51:57;19.57;;;10.83;;
47383;SDS011;33129;52.232;5.192;2022-11-23T04:54:23;20.33;;;10.77;;
47383;SDS011;33129;52.232;5.192;2022-11-23T04:56:49;16.67;;;10.27;;
47383;SDS011;33129;52.232;5.192;2022-11-23T04:59:14;15.67;;;10.07;;
47383;SDS011;33129;52.232;5.192;2022-11-23T05:01:40;14.97;;;9.97;;
47383;SDS011;33129;52.232;5.192;2022-11-23T05:04:06;15.97;;;9.70;;
47383;SDS011;33129;52.232;5.192;2022-11-23T05:06:32;18.40;;;10.93;;
47383;SDS011;33129;52.232;5.192;2022-11-23T05:08:57;16.77;;;9.20;;
47383;SDS011;33129;52.232;5.192;2022-11-23T05:11:23;16.33;;;9.67;;
47383;SDS011;33129;52.232;5.192;2022-11-23T05:13:51;16.20;;;9.13;;
47383;SDS011;33129;52.232;5.192;2022-11-23T05:16:16;15.80;;;9.40;;
47383;SDS011;33129;52.232;5.192;2022-11-23T05:18:42;15.90;;;10.07;;
47383;SDS011;33129;52.232;5.192;2022-11-23T05:21:08;20.37;;;9.10;;
47383;SDS011;33129;52.232;5.192;2022-11-23T05:23:33;16.43;;;9.90;;
47383;SDS011;33129;52.232;5.192;2022-11-23T05:25:59;17.20;;;9.23;;
47383;SDS011;33129;52.232;5.192;2022-11-23T05:28:25;18.23;;;8.83;;
47383;SDS011;33129;52.232;5.192;2022-11-23T05:30:50;18.70;;;9.10;;
47383;SDS011;33129;52.232;5.192;2022-11-23T05:33:17;16.87;;;8.83;;
47383;SDS011;33129;52.232;5.192;2022-11-23T05:35:43;14.07;;;8.17;;
47383;SDS011;33129;52.232;5.192;2022-11-23T05:38:09;15.13;;;8.57;;
47383;SDS011;33129;52.232;5.192;2022-11-23T05:40:34;14.40;;;8.50;;
47383;SDS011;33129;52.232;5.192;2022-11-23T05:43:00;15.23;;;9.43;;
47383;SDS011;33129;52.232;5.192;2022-11-23T05:45:26;19.03;;;8.50;;
47383;SDS011;33129;52.232;5.192;2022-11-23T05:47:52;14.37;;;8.23;;
47383;SDS011;33129;52.232;5.192;2022-11-23T05:50:20;18.13;;;8.47;;
47383;SDS011;33129;52.232;5.192;2022-11-23T05:52:48;17.37;;;9.37;;
47383;SDS011;33129;52.232;5.192;2022-11-23T05:55:14;24.13;;;10.10;;
47383;SDS011;33129;52.232;5.192;2022-11-23T05:57:40;18.23;;;8.40;;
47383;SDS011;33129;52.232;5.192;2022-11-23T06:00:06;17.90;;;9.00;;
47383;SDS011;33129;52.232;5.192;2022-11-23T06:02:36;18.25;;;9.73;;
47383;SDS011;33129;52.232;5.192;2022-11-23T06:05:03;19.90;;;9.93;;
47383;SDS011;33129;52.232;5.192;2022-11-23T06:07:32;14.40;;;8.77;;
47383;SDS011;33129;52.232;5.192;2022-11-23T06:09:59;18.80;;;9.00;;
47383;SDS011;33129;52.232;5.192;2022-11-23T06:12:26;19.87;;;9.47;;
47383;SDS011;33129;52.232;5.192;2022-11-23T06:14:53;22.23;;;9.87;;
47383;SDS011;33129;52.232;5.192;2022-11-23T06:17:19;19.77;;;8.37;;
47383;SDS011;33129;52.232;5.192;2022-11-23T06:19:45;23.13;;;9.03;;
47383;SDS011;33129;52.232;5.192;2022-11-23T06:22:11;18.30;;;8.77;;
47383;SDS011;33129;52.232;5.192;2022-11-23T06:24:36;19.40;;;8.47;;
47383;SDS011;33129;52.232;5.192;2022-11-23T06:27:02;17.50;;;8.63;;
47383;SDS011;33129;52.232;5.192;2022-11-23T06:29:28;16.93;;;9.27;;
47383;SDS011;33129;52.232;5.192;2022-11-23T06:31:54;18.83;;;8.30;;
47383;SDS011;33129;52.232;5.192;2022-11-23T06:34:19;20.13;;;8.80;;
47383;SDS011;33129;52.232;5.192;2022-11-23T06:36:45;20.07;;;9.60;;
47383;SDS011;33129;52.232;5.192;2022-11-23T06:39:11;18.20;;;9.33;;
47383;SDS011;33129;52.232;5.192;2022-11-23T06:41:37;17.80;;;8.90;;
47383;SDS011;33129;52.232;5.192;2022-11-23T06:44:03;14.10;;;8.50;;
47383;SDS011;33129;52.232;5.192;2022-11-23T06:46:30;20.23;;;9.83;;
47383;SDS011;33129;52.232;5.192;2022-11-23T06:48:56;18.73;;;9.37;;
47383;SDS011;33129;52.232;5.192;2022-11-23T06:51:22;18.10;;;8.10;;
47383;SDS011;33129;52.232;5.192;2022-11-23T06:53:48;15.37;;;8.37;;
47383;SDS011;33129;52.232;5.192;2022-11-23T06:56:13;18.40;;;9.00;;
47383;SDS011;33129;52.232;5.192;2022-11-23T06:58:39;20.20;;;9.47;;
47383;SDS011;33129;52.232;5.192;2022-11-23T07:01:06;19.00;;;9.27;;
47383;SDS011;33129;52.232;5.192;2022-11-23T07:03:34;15.93;;;8.60;;
47383;SDS011;33129;52.232;5.192;2022-11-23T07:06:04;17.87;;;8.47;;
47383;SDS011;33129;52.232;5.192;2022-11-23T07:08:32;15.43;;;7.43;;
47383;SDS011;33129;52.232;5.192;2022-11-23T07:10:59;20.30;;;8.27;;
47383;SDS011;33129;52.232;5.192;2022-11-23T07:13:30;14.03;;;7.87;;
47383;SDS011;33129;52.232;5.192;2022-11-23T07:15:57;15.67;;;6.27;;
47383;SDS011;33129;52.232;5.192;2022-11-23T07:18:23;17.83;;;7.33;;
47383;SDS011;33129;52.232;5.192;2022-11-23T07:20:50;14.30;;;6.47;;
47383;SDS011;33129;52.232;5.192;2022-11-23T07:23:15;20.70;;;6.30;;
47383;SDS011;33129;52.232;5.192;2022-11-23T07:25:41;16.17;;;5.50;;
47383;SDS011;33129;52.232;5.192;2022-11-23T07:28:09;14.50;;;5.20;;
47383;SDS011;33129;52.232;5.192;2022-11-23T07:30:36;22.37;;;6.10;;
47383;SDS011;33129;52.232;5.192;2022-11-23T07:33:02;15.43;;;5.43;;
47383;SDS011;33129;52.232;5.192;2022-11-23T07:35:30;13.47;;;5.07;;
47383;SDS011;33129;52.232;5.192;2022-11-23T07:38:00;15.67;;;4.53;;
47383;SDS011;33129;52.232;5.192;2022-11-23T07:40:26;14.97;;;3.93;;
47383;SDS011;33129;52.232;5.192;2022-11-23T07:42:52;15.83;;;4.60;;
47383;SDS011;33129;52.232;5.192;2022-11-23T07:45:23;12.70;;;3.57;;
47383;SDS011;33129;52.232;5.192;2022-11-23T07:47:56;16.33;;;3.20;;
47383;SDS011;33129;52.232;5.192;2022-11-23T07:50:29;13.90;;;3.53;;
47383;SDS011;33129;52.232;5.192;2022-11-23T07:52:55;20.17;;;3.67;;
47383;SDS011;33129;52.232;5.192;2022-11-23T07:55:21;15.20;;;3.60;;
47383;SDS011;33129;52.232;5.192;2022-11-23T07:57:51;14.27;;;3.83;;
47383;SDS011;33129;52.232;5.192;2022-11-23T08:00:18;9.18;;;3.53;;
47383;SDS011;33129;52.232;5.192;2022-11-23T08:02:49;14.38;;;2.92;;
47383;SDS011;33129;52.232;5.192;2022-11-23T08:05:15;12.53;;;3.80;;
47383;SDS011;33129;52.232;5.192;2022-11-23T08:07:41;11.70;;;3.90;;
47383;SDS011;33129;52.232;5.192;2022-11-23T08:10:09;17.00;;;3.60;;
47383;SDS011;33129;52.232;5.192;2022-11-23T08:12:36;13.30;;;4.00;;
47383;SDS011;33129;52.232;5.192;2022-11-23T08:15:02;13.03;;;3.17;;
47383;SDS011;33129;52.232;5.192;2022-11-23T08:17:28;13.43;;;3.87;;
47383;SDS011;33129;52.232;5.192;2022-11-23T08:19:53;15.97;;;3.77;;
47383;SDS011;33129;52.232;5.192;2022-11-23T08:22:19;15.37;;;3.50;;
47383;SDS011;33129;52.232;5.192;2022-11-23T08:24:45;15.87;;;3.67;;
47383;SDS011;33129;52.232;5.192;2022-11-23T08:27:11;16.30;;;3.53;;
47383;SDS011;33129;52.232;5.192;2022-11-23T08:29:38;12.20;;;3.53;;
47383;SDS011;33129;52.232;5.192;2022-11-23T08:32:04;12.47;;;3.23;;
47383;SDS011;33129;52.232;5.192;2022-11-23T08:34:29;15.90;;;4.47;;
47383;SDS011;33129;52.232;5.192;2022-11-23T08:36:55;15.67;;;4.07;;
47383;SDS011;33129;52.232;5.192;2022-11-23T08:39:21;14.13;;;3.87;;
47383;SDS011;33129;52.232;5.192;2022-11-23T08:41:47;13.53;;;3.60;;
47383;SDS011;33129;52.232;5.192;2022-11-23T08:44:12;14.93;;;3.70;;
47383;SDS011;33129;52.232;5.192;2022-11-23T08:46:38;19.10;;;4.13;;
47383;SDS011;33129;52.232;5.192;2022-11-23T08:49:04;13.87;;;3.93;;
47383;SDS011;33129;52.232;5.192;2022-11-23T08:51:31;20.00;;;3.80;;
47383;SDS011;33129;52.232;5.192;2022-11-23T08:53:57;17.43;;;3.40;;
47383;SDS011;33129;52.232;5.192;2022-11-23T08:56:23;12.93;;;3.87;;
47383;SDS011;33129;52.232;5.192;2022-11-23T08:58:49;14.07;;;3.50;;
47383;SDS011;33129;52.232;5.192;2022-11-23T09:01:15;15.77;;;3.27;;
47383;SDS011;33129;52.232;5.192;2022-11-23T09:03:42;13.60;;;3.83;;
47383;SDS011;33129;52.232;5.192;2022-11-23T09:06:09;15.07;;;3.63;;
47383;SDS011;33129;52.232;5.192;2022-11-23T09:08:36;17.73;;;3.47;;
47383;SDS011;33129;52.232;5.192;2022-11-23T09:11:03;13.40;;;4.27;;
47383;SDS011;33129;52.232;5.192;2022-11-23T09:13:35;14.93;;;3.93;;
47383;SDS011;33129;52.232;5.192;2022-11-23T09:16:02;15.07;;;4.07;;
47383;SDS011;33129;52.232;5.192;2022-11-23T09:18:30;16.37;;;3.50;;
47383;SDS011;33129;52.232;5.192;2022-11-23T09:20:57;13.70;;;4.20;;
47383;SDS011;33129;52.232;5.192;2022-11-23T09:23:26;13.63;;;3.43;;
47383;SDS011;33129;52.232;5.192;2022-11-23T09:25:52;15.03;;;3.70;;
47383;SDS011;33129;52.232;5.192;2022-11-23T09:28:18;20.57;;;9.30;;
47383;SDS011;33129;52.232;5.192;2022-11-23T09:30:44;13.43;;;3.20;;
47383;SDS011;33129;52.232;5.192;2022-11-23T09:33:11;11.13;;;3.00;;
47383;SDS011;33129;52.232;5.192;2022-11-23T09:35:37;16.20;;;3.97;;
47383;SDS011;33129;52.232;5.192;2022-11-23T09:38:03;13.33;;;3.53;;
47383;SDS011;33129;52.232;5.192;2022-11-23T09:40:32;16.37;;;3.77;;
47383;SDS011;33129;52.232;5.192;2022-11-23T09:51:18;14.77;;;3.53;;
47383;SDS011;33129;52.232;5.192;2022-11-23T09:56:55;22.43;;;4.87;;
47383;SDS011;33129;52.232;5.192;2022-11-23T09:59:30;14.37;;;3.90;;
47383;SDS011;33129;52.232;5.192;2022-11-23T10:02:04;15.90;;;3.93;;
47383;SDS011;33129;52.232;5.192;2022-11-23T10:04:53;13.47;;;3.27;;
47383;SDS011;33129;52.232;5.192;2022-11-23T10:13:21;11.70;;;3.13;;
47383;SDS011;33129;52.232;5.192;2022-11-23T10:16:14;11.97;;;3.13;;
47383;SDS011;33129;52.232;5.192;2022-11-23T10:24:43;15.47;;;3.20;;
47383;SDS011;33129;52.232;5.192;2022-11-23T10:27:15;18.47;;;4.40;;
47383;SDS011;33129;52.232;5.192;2022-11-23T10:29:44;12.45;;;3.28;;
47383;SDS011;33129;52.232;5.192;2022-11-23T10:35:29;12.57;;;3.63;;
47383;SDS011;33129;52.232;5.192;2022-11-23T10:38:18;15.77;;;3.10;;
47383;SDS011;33129;52.232;5.192;2022-11-23T10:43:42;13.40;;;3.33;;
47383;SDS011;33129;52.232;5.192;2022-11-23T10:46:21;10.70;;;3.53;;
47383;SDS011;33129;52.232;5.192;2022-11-23T10:49:07;12.27;;;3.13;;
47383;SDS011;33129;52.232;5.192;2022-11-23T10:51:49;16.17;;;4.03;;
47383;SDS011;33129;52.232;5.192;2022-11-23T10:54:21;11.47;;;3.07;;
47383;SDS011;33129;52.232;5.192;2022-11-23T10:56:54;11.93;;;3.23;;
47383;SDS011;33129;52.232;5.192;2022-11-23T11:02:10;10.70;;;3.10;;
47383;SDS011;33129;52.232;5.192;2022-11-23T11:04:41;11.07;;;2.70;;
47383;SDS011;33129;52.232;5.192;2022-11-23T11:07:10;12.77;;;3.93;;
47383;SDS011;33129;52.232;5.192;2022-11-23T11:09:53;10.00;;;3.10;;
47383;SDS011;33129;52.232;5.192;2022-11-23T11:12:25;10.80;;;3.47;;
47383;SDS011;33129;52.232;5.192;2022-11-23T11:14:57;10.30;;;2.80;;
47383;SDS011;33129;52.232;5.192;2022-11-23T11:17:33;11.37;;;3.10;;
47383;SDS011;33129;52.232;5.192;2022-11-23T11:20:01;9.53;;;2.60;;
47383;SDS011;33129;52.232;5.192;2022-11-23T11:22:48;12.93;;;3.30;;
47383;SDS011;33129;52.232;5.192;2022-11-23T11:25:25;14.63;;;3.40;;
47383;SDS011;33129;52.232;5.192;2022-11-23T11:27:55;10.27;;;3.33;;
47383;SDS011;33129;52.232;5.192;2022-11-23T11:30:22;12.77;;;3.27;;
47383;SDS011;33129;52.232;5.192;2022-11-23T11:35:29;10.63;;;3.30;;
47383;SDS011;33129;52.232;5.192;2022-11-23T11:38:05;19.03;;;3.83;;
47383;SDS011;33129;52.232;5.192;2022-11-23T11:40:44;10.57;;;3.10;;
47383;SDS011;33129;52.232;5.192;2022-11-23T11:43:18;12.17;;;2.93;;
47383;SDS011;33129;52.232;5.192;2022-11-23T11:45:54;8.73;;;2.90;;
47383;SDS011;33129;52.232;5.192;2022-11-23T11:48:26;9.83;;;3.03;;
47383;SDS011;33129;52.232;5.192;2022-11-23T11:50:59;7.43;;;2.73;;
47383;SDS011;33129;52.232;5.192;2022-11-23T11:59:09;14.50;;;2.90;;
47383;SDS011;33129;52.232;5.192;2022-11-23T12:02:13;11.70;;;3.50;;
47383;SDS011;33129;52.232;5.192;2022-11-23T12:08:01;10.90;;;2.37;;
47383;SDS011;33129;52.232;5.192;2022-11-23T12:10:48;8.77;;;2.40;;
47383;SDS011;33129;52.232;5.192;2022-11-23T12:15:47;14.73;;;3.13;;
47383;SDS011;33129;52.232;5.192;2022-11-23T12:30:20;9.40;;;2.63;;
47383;SDS011;33129;52.232;5.192;2022-11-23T12:38:54;8.73;;;2.63;;
47383;SDS011;33129;52.232;5.192;2022-11-23T12:41:43;11.50;;;2.70;;
47383;SDS011;33129;52.232;5.192;2022-11-23T12:50:34;8.87;;;2.37;;
47383;SDS011;33129;52.232;5.192;2022-11-23T12:53:30;9.30;;;1.80;;
47383;SDS011;33129;52.232;5.192;2022-11-23T12:56:58;7.27;;;2.00;;
47383;SDS011;33129;52.232;5.192;2022-11-23T12:59:45;8.67;;;2.10;;
47383;SDS011;33129;52.232;5.192;2022-11-23T13:02:46;8.07;;;1.93;;
47383;SDS011;33129;52.232;5.192;2022-11-23T13:14:46;7.85;;;2.60;;
47383;SDS011;33129;52.232;5.192;2022-11-23T13:22:43;10.83;;;2.10;;
47383;SDS011;33129;52.232;5.192;2022-11-23T13:25:17;11.00;;;2.37;;
47383;SDS011;33129;52.232;5.192;2022-11-23T13:30:23;7.40;;;1.90;;
47383;SDS011;33129;52.232;5.192;2022-11-23T13:40:43;7.63;;;2.10;;
47383;SDS011;33129;52.232;5.192;2022-11-23T13:43:17;8.35;;;2.33;;
47383;SDS011;33129;52.232;5.192;2022-11-23T13:48:52;6.10;;;2.20;;
47383;SDS011;33129;52.232;5.192;2022-11-23T13:51:24;9.93;;;2.27;;
47383;SDS011;33129;52.232;5.192;2022-11-23T13:53:57;15.30;;;2.53;;
47383;SDS011;33129;52.232;5.192;2022-11-23T13:56:44;6.87;;;1.73;;
47383;SDS011;33129;52.232;5.192;2022-11-23T14:04:32;8.53;;;2.43;;
47383;SDS011;33129;52.232;5.192;2022-11-23T14:07:00;8.53;;;2.33;;
47383;SDS011;33129;52.232;5.192;2022-11-23T14:09:56;9.85;;;2.53;;
47383;SDS011;33129;52.232;5.192;2022-11-23T14:12:57;8.50;;;2.43;;
47383;SDS011;33129;52.232;5.192;2022-11-23T14:15:34;8.33;;;2.30;;
47383;SDS011;33129;52.232;5.192;2022-11-23T14:21:06;9.13;;;2.20;;
47383;SDS011;33129;52.232;5.192;2022-11-23T14:26:41;6.33;;;1.77;;
47383;SDS011;33129;52.232;5.192;2022-11-23T14:32:46;8.43;;;1.97;;
47383;SDS011;33129;52.232;5.192;2022-11-23T14:35:56;9.07;;;2.53;;
47383;SDS011;33129;52.232;5.192;2022-11-23T14:38:33;7.97;;;2.40;;
47383;SDS011;33129;52.232;5.192;2022-11-23T14:41:21;9.57;;;2.67;;
47383;SDS011;33129;52.232;5.192;2022-11-23T14:43:48;5.83;;;2.33;;
47383;SDS011;33129;52.232;5.192;2022-11-23T14:46:16;8.53;;;2.10;;
47383;SDS011;33129;52.232;5.192;2022-11-23T14:48:45;7.30;;;1.90;;
47383;SDS011;33129;52.232;5.192;2022-11-23T14:54:00;5.03;;;1.77;;
47383;SDS011;33129;52.232;5.192;2022-11-23T14:59:02;4.97;;;1.73;;
47383;SDS011;33129;52.232;5.192;2022-11-23T15:01:32;4.97;;;1.80;;
47383;SDS011;33129;52.232;5.192;2022-11-23T15:04:05;5.77;;;2.30;;
47383;SDS011;33129;52.232;5.192;2022-11-23T15:06:46;4.90;;;2.10;;
47383;SDS011;33129;52.232;5.192;2022-11-23T15:09:22;9.13;;;2.10;;
47383;SDS011;33129;52.232;5.192;2022-11-23T15:12:42;7.87;;;2.53;;
47383;SDS011;33129;52.232;5.192;2022-11-23T15:15:19;6.47;;;2.07;;
47383;SDS011;33129;52.232;5.192;2022-11-23T15:17:51;5.90;;;1.93;;
47383;SDS011;33129;52.232;5.192;2022-11-23T15:20:20;7.97;;;2.50;;
47383;SDS011;33129;52.232;5.192;2022-11-23T15:22:49;6.87;;;1.90;;
47383;SDS011;33129;52.232;5.192;2022-11-23T15:25:15;8.10;;;1.97;;
47383;SDS011;33129;52.232;5.192;2022-11-23T15:27:43;7.50;;;2.43;;
47383;SDS011;33129;52.232;5.192;2022-11-23T15:30:16;5.27;;;2.10;;
47383;SDS011;33129;52.232;5.192;2022-11-23T15:32:55;8.07;;;1.90;;
47383;SDS011;33129;52.232;5.192;2022-11-23T15:36:02;7.17;;;2.50;;
47383;SDS011;33129;52.232;5.192;2022-11-23T15:38:29;6.40;;;2.33;;
47383;SDS011;33129;52.232;5.192;2022-11-23T15:40:56;5.57;;;2.30;;
47383;SDS011;33129;52.232;5.192;2022-11-23T15:43:29;5.53;;;2.03;;
47383;SDS011;33129;52.232;5.192;2022-11-23T15:46:02;5.97;;;1.83;;
47383;SDS011;33129;52.232;5.192;2022-11-23T15:48:31;8.83;;;2.40;;
47383;SDS011;33129;52.232;5.192;2022-11-23T15:51:03;6.77;;;2.33;;
47383;SDS011;33129;52.232;5.192;2022-11-23T15:53:48;7.10;;;2.53;;
47383;SDS011;33129;52.232;5.192;2022-11-23T15:58:53;4.83;;;2.00;;
47383;SDS011;33129;52.232;5.192;2022-11-23T16:01:20;8.27;;;2.57;;
47383;SDS011;33129;52.232;5.192;2022-11-23T16:03:48;12.47;;;3.20;;
47383;SDS011;33129;52.232;5.192;2022-11-23T16:06:27;13.27;;;3.03;;
47383;SDS011;33129;52.232;5.192;2022-11-23T16:14:50;9.13;;;2.70;;
47383;SDS011;33129;52.232;5.192;2022-11-23T16:19:53;7.20;;;3.00;;
47383;SDS011;33129;52.232;5.192;2022-11-23T16:22:28;6.47;;;2.83;;
47383;SDS011;33129;52.232;5.192;2022-11-23T16:25:05;6.20;;;2.50;;
47383;SDS011;33129;52.232;5.192;2022-11-23T16:27:40;7.80;;;2.70;;
47383;SDS011;33129;52.232;5.192;2022-11-23T16:30:21;14.97;;;7.23;;
47383;SDS011;33129;52.232;5.192;2022-11-23T16:32:51;8.67;;;3.23;;
47383;SDS011;33129;52.232;5.192;2022-11-23T16:35:18;8.33;;;3.03;;
47383;SDS011;33129;52.232;5.192;2022-11-23T16:37:45;5.97;;;2.87;;
47383;SDS011;33129;52.232;5.192;2022-11-23T16:40:11;7.50;;;3.10;;
47383;SDS011;33129;52.232;5.192;2022-11-23T16:42:38;7.83;;;3.30;;
47383;SDS011;33129;52.232;5.192;2022-11-23T16:45:04;9.23;;;3.83;;
47383;SDS011;33129;52.232;5.192;2022-11-23T16:47:31;8.60;;;3.40;;
47383;SDS011;33129;52.232;5.192;2022-11-23T16:49:58;9.57;;;3.83;;
47383;SDS011;33129;52.232;5.192;2022-11-23T16:52:24;6.70;;;4.23;;
47383;SDS011;33129;52.232;5.192;2022-11-23T16:54:50;8.50;;;3.73;;
47383;SDS011;33129;52.232;5.192;2022-11-23T16:57:29;8.23;;;4.13;;
47383;SDS011;33129;52.232;5.192;2022-11-23T16:59:58;9.57;;;4.73;;
47383;SDS011;33129;52.232;5.192;2022-11-23T17:02:29;7.23;;;4.30;;
47383;SDS011;33129;52.232;5.192;2022-11-23T17:04:55;9.27;;;5.00;;